Time,TemperatureF,DewpointF,PressureIn,WindDirection,WindDirectionDegrees,WindSpeedMPH,WindSpeedGustMPH,Humidity,HourlyPrecipIn,Conditions,Clouds,dailyrainin,SoftwareType,DateUTC
2014-08-20 00:09:00,64.5,62.0,29.76,WNW,290,0.0,-999.0,91,-99.99,,,0.08,weatherlink.com 1.10,2014-08-20 05:09:00,
2014-08-20 00:24:00,64.2,62.0,29.76,WNW,291,2.0,-999.0,91,-99.99,,,0.00,weatherlink.com 1.10,2014-08-20 05:24:00,
2014-08-20 00:39:00,63.9,61.0,29.76,WNW,291,0.0,-999.0,91,-99.99,,,0.00,weatherlink.com 1.10,2014-08-20 05:39:00,
2014-08-20 00:54:00,63.5,61.0,29.77,WNW,291,1.0,-999.0,92,-99.99,,,0.00,weatherlink.com 1.10,2014-08-20 05:54:00,
2014-08-20 01:09:00,63.1,61.0,29.76,WNW,290,0.0,-999.0,93,-99.99,,,0.00,weatherlink.com 1.10,2014-08-20 06:09:00,
2014-08-20 01:24:00,62.9,61.0,29.76,WNW,290,1.0,-999.0,93,-99.99,,,0.00,weatherlink.com 1.10,2014-08-20 06:24:00,
2014-08-20 01:39:00,62.7,61.0,29.76,WNW,290,1.0,-999.0,93,-99.99,,,0.00,weatherlink.com 1.10,2014-08-20 06:39:00,
2014-08-20 01:54:00,62.8,61.0,29.76,WNW,286,0.0,-999.0,93,-99.99,,,0.00,weatherlink.com 1.10,2014-08-20 06:54:00,
2014-08-20 02:09:00,62.5,61.0,29.76,WNW,286,2.0,-999.0,93,-99.99,,,0.00,weatherlink.com 1.10,2014-08-20 07:09:00,
2014-08-20 02:24:00,62.4,61.0,29.77,West,281,1.0,-999.0,94,-99.99,,,0.00,weatherlink.com 1.10,2014-08-20 07:24:00,
2014-08-20 02:39:00,62.4,61.0,29.77,West,273,0.0,-999.0,94,-99.99,,,0.00,weatherlink.com 1.10,2014-08-20 07:39:00,
2014-08-20 02:55:00,62.2,61.0,29.78,West,271,3.0,-999.0,94,-99.99,,,0.00,weatherlink.com 1.10,2014-08-20 07:55:00,
2014-08-20 03:10:00,62.2,61.0,29.78,West,264,1.0,-999.0,94,-99.99,,,0.00,weatherlink.com 1.10,2014-08-20 08:10:00,
2014-08-20 03:25:00,62.1,60.0,29.78,West,269,1.0,-999.0,94,-99.99,,,0.00,weatherlink.com 1.10,2014-08-20 08:25:00,
2014-08-20 03:40:00,62.2,61.0,29.78,West,267,0.0,-999.0,94,-99.99,,,0.00,weatherlink.com 1.10,2014-08-20 08:40:00,
2014-08-20 03:55:00,62.3,61.0,29.79,West,267,1.0,-999.0,94,-99.99,,,0.00,weatherlink.com 1.10,2014-08-20 08:55:00,
2014-08-20 04:10:00,62.0,60.0,29.79,West,266,3.0,-999.0,94,-99.99,,,0.00,weatherlink.com 1.10,2014-08-20 09:10:00,
2014-08-20 04:25:00,62.0,60.0,29.80,West,265,0.0,-999.0,94,-99.99,,,0.00,weatherlink.com 1.10,2014-08-20 09:25:00,
2014-08-20 04:40:00,62.3,61.0,29.79,West,266,2.0,-999.0,95,-99.99,,,0.00,weatherlink.com 1.10,2014-08-20 09:40:00,
2014-08-20 04:55:00,62.2,61.0,29.79,West,273,1.0,-999.0,95,-99.99,,,0.00,weatherlink.com 1.10,2014-08-20 09:55:00,
2014-08-20 05:10:00,62.2,61.0,29.79,WNW,292,1.0,-999.0,95,-99.99,,,0.00,weatherlink.com 1.10,2014-08-20 10:10:00,
2014-08-20 05:25:00,62.0,60.0,29.80,WNW,293,0.0,-999.0,94,-99.99,,,0.00,weatherlink.com 1.10,2014-08-20 10:25:00,
2014-08-20 05:40:00,61.9,61.0,29.80,WNW,293,0.0,-999.0,95,-99.99,,,0.00,weatherlink.com 1.10,2014-08-20 10:40:00,
2014-08-20 05:55:00,62.0,61.0,29.80,WNW,293,0.0,-999.0,95,-99.99,,,0.00,weatherlink.com 1.10,2014-08-20 10:55:00,
2014-08-20 06:10:00,62.1,61.0,29.80,WNW,296,0.0,-999.0,95,-99.99,,,0.00,weatherlink.com 1.10,2014-08-20 11:10:00,
2014-08-20 06:25:00,61.9,61.0,29.80,WNW,297,0.0,-999.0,95,-99.99,,,0.00,weatherlink.com 1.10,2014-08-20 11:25:00,
2014-08-20 06:40:00,61.9,61.0,29.80,WNW,297,0.0,-999.0,95,-99.99,,,0.00,weatherlink.com 1.10,2014-08-20 11:40:00,
2014-08-20 06:55:00,61.9,60.0,29.80,WNW,297,0.0,-999.0,94,-99.99,,,0.00,weatherlink.com 1.10,2014-08-20 11:55:00,
2014-08-20 07:10:00,62.2,61.0,29.80,NW,312,0.0,-999.0,95,-99.99,,,0.00,weatherlink.com 1.10,2014-08-20 12:10:00,
2014-08-20 07:25:00,62.7,61.0,29.81,NNW,333,3.0,-999.0,95,-99.99,,,0.00,weatherlink.com 1.10,2014-08-20 12:25:00,
2014-08-20 07:40:00,62.8,61.0,29.82,North,355,0.0,-999.0,95,-99.99,,,0.00,weatherlink.com 1.10,2014-08-20 12:40:00,
2014-08-20 07:55:00,63.1,62.0,29.83,North,355,0.0,-999.0,95,-99.99,,,0.00,weatherlink.com 1.10,2014-08-20 12:55:00,
2014-08-20 08:10:00,63.4,62.0,29.84,WNW,303,0.0,-999.0,95,-99.99,,,0.00,weatherlink.com 1.10,2014-08-20 13:10:00,
2014-08-20 08:25:00,63.6,62.0,29.84,WSW,237,0.0,-999.0,95,-99.99,,,0.00,weatherlink.com 1.10,2014-08-20 13:25:00,
2014-08-20 08:40:00,64.2,63.0,29.84,WSW,240,0.0,-999.0,95,-99.99,,,0.00,weatherlink.com 1.10,2014-08-20 13:40:00,
2014-08-20 08:55:00,64.9,64.0,29.84,SW,236,3.0,-999.0,95,-99.99,,,0.00,weatherlink.com 1.10,2014-08-20 13:55:00,
2014-08-20 09:10:00,66.3,65.0,29.85,SW,236,4.0,-999.0,95,-99.99,,,0.00,weatherlink.com 1.10,2014-08-20 14:10:00,
2014-08-20 09:25:00,68.3,66.0,29.84,West,278,1.0,-999.0,92,-99.99,,,0.00,weatherlink.com 1.10,2014-08-20 14:25:00,
2014-08-20 09:40:00,71.1,67.0,29.84,NW,307,0.0,-999.0,86,-99.99,,,0.00,weatherlink.com 1.10,2014-08-20 14:40:00,
2014-08-20 09:55:00,73.0,67.0,29.84,NNW,348,0.0,-999.0,80,-99.99,,,0.00,weatherlink.com 1.10,2014-08-20 14:55:00,
2014-08-20 10:10:00,74.8,67.0,29.85,West,276,1.0,-999.0,76,-99.99,,,0.00,weatherlink.com 1.10,2014-08-20 15:10:00,
2014-08-20 10:25:00,74.9,66.0,29.85,West,260,0.0,-999.0,74,-99.99,,,0.00,weatherlink.com 1.10,2014-08-20 15:25:00,
2014-08-20 10:40:00,74.7,66.0,29.85,NNW,336,1.0,-999.0,75,-99.99,,,0.00,weatherlink.com 1.10,2014-08-20 15:40:00,
2014-08-20 10:55:00,74.8,66.0,29.85,WSW,250,0.0,-999.0,74,-99.99,,,0.00,weatherlink.com 1.10,2014-08-20 15:55:00,
2014-08-20 11:10:00,76.5,66.0,29.86,WSW,257,4.0,-999.0,70,-99.99,,,0.00,weatherlink.com 1.10,2014-08-20 16:10:00,
2014-08-20 11:25:00,76.7,67.0,29.86,SW,236,3.0,-999.0,71,-99.99,,,0.00,weatherlink.com 1.10,2014-08-20 16:25:00,
2014-08-20 11:41:00,76.4,67.0,29.86,SW,221,2.0,-999.0,72,-99.99,,,0.00,weatherlink.com 1.10,2014-08-20 16:41:00,
2014-08-20 11:56:00,77.9,67.0,29.87,WSW,241,5.0,-999.0,68,-99.99,,,0.00,weatherlink.com 1.10,2014-08-20 16:56:00,
2014-08-20 12:11:00,77.3,66.0,29.87,NNW,340,1.0,-999.0,69,-99.99,,,0.00,weatherlink.com 1.10,2014-08-20 17:11:00,
2014-08-20 12:26:00,77.0,66.0,29.86,SW,228,5.0,-999.0,69,-99.99,,,0.00,weatherlink.com 1.10,2014-08-20 17:26:00,
2014-08-20 12:41:00,77.5,67.0,29.86,West,263,0.0,-999.0,70,-99.99,,,0.00,weatherlink.com 1.10,2014-08-20 17:41:00,
2014-08-20 12:56:00,78.9,67.0,29.86,WSW,241,7.0,-999.0,67,-99.99,,,0.00,weatherlink.com 1.10,2014-08-20 17:56:00,
2014-08-20 13:11:00,80.4,67.0,29.85,NNW,330,2.0,-999.0,63,-99.99,,,0.00,weatherlink.com 1.10,2014-08-20 18:11:00,